< < Back
Terminal Aerodrome Forecast


Current Version              Previous Versions:   1  2  3  4  5  6  7  8  9  

Terminal Aerodrome Forecast

347
FTUS42 KMLB 240500
TAFDAB
TAF
KDAB 240520Z 2406/2506 VRB02KT P6SM FEW040 FEW050
     FM240800 34003KT P6SM FEW250
     FM241400 04010KT P6SM FEW035 FEW250
     FM250000 01005KT P6SM FEW250=



Latest METAR

590
SAUS80 KWBC 251000
MTRDAB
METAR KDAB 250953Z 31005KT 10SM FEW060 16/12 A2996 RMK AO2 SLP143
T01560117


USA.gov is the U.S. government's official web portal to all federal, state and local government web resources and services.